Time;durP1;ratioP1;P1;durP2;ratioP2;P2;SDS_P1;SDS_P2;PMS_P1;PMS_P2;Temp;Humidity;BMP_temperature;BMP_pressure;BME280_temperature;BME280_humidity;BME280_pressure;Samples;Min_cycle;Max_cycle;Signal;HPM_P1;HPM_P2
2022/01/24 00:02:18;;;;;;;;;;;;;;;;;;5053642;28;19928;-58
2022/01/24 00:04:44;;;;;;;;;;;;;;;;;;5053060;28;20411;-58
2022/01/24 00:07:10;;;;;;;;;;;;;;;;;;5052556;28;19921;-58
2022/01/24 00:09:36;;;;;;;;;;;;;;;;;;5053697;28;20332;-59
2022/01/24 00:12:13;;;;;;;;;;;;;;;;;;5053391;28;19939;-59
2022/01/24 00:14:59;;;;;;;;;;;;;;;;;;5053361;28;19920;-59
2022/01/24 00:17:35;;;;;;;;;;;;;;;;;;5053450;28;20360;-59
2022/01/24 00:28:12;;;;;;;;;;;;;;;;;;5052517;28;19916;-58
2022/01/24 00:30:39;;;;;;;;;;;;;;;;;;5053108;28;20375;-58
2022/01/24 00:33:05;;;;;;;;;;;;;;;;;;5052557;28;19920;-58
2022/01/24 00:35:31;;;;;;;;;;;;;;;;;;5052162;28;20437;-59
2022/01/24 00:38:00;;;;;;;;;;;;;;;;;;5052565;28;19978;-59
2022/01/24 00:40:26;;;;;;;;;;;;;;;;;;5051982;28;19920;-59
2022/01/24 00:42:56;;;;;;;;;;;;;;;;;;5052536;28;19921;-59
2022/01/24 00:45:31;;;;;;;;;;;;;;;;;;5052766;28;19920;-59
2022/01/24 00:54:01;;;;;;;;;;;;;;;;;;5109269;28;19962;-58
2022/01/24 00:56:27;;;;;;;;;;;;;;;;;;5108622;28;19924;-59
2022/01/24 00:58:53;;;;;;;;;;;;;;;;;;5109184;28;20367;-59
2022/01/24 01:01:19;;;;;;;;;;;;;;;;;;5109306;28;20030;-58
2022/01/24 01:03:45;;;;;;;;;;;;;;;;;;5108719;28;19924;-58
2022/01/24 01:06:12;;;;;;;;;;;;;;;;;;5109316;28;19985;-59
2022/01/24 01:19:30;;;;;;;;;;;;;;;;;;5108910;28;19990;-58
2022/01/24 01:21:56;;;;;;;;;;;;;;;;;;5108749;28;19923;-59
2022/01/24 01:24:23;;;;;;;;;;;;;;;;;;5108324;28;19924;-59
2022/01/24 01:26:54;;;;;;;;;;;;;;;;;;5108607;28;19967;-59
2022/01/24 01:29:24;;;;;;;;;;;;;;;;;;5108909;28;19924;-59
2022/01/24 01:31:59;;;;;;;;;;;;;;;;;;5104516;28;19929;-58
2022/01/24 01:34:49;;;;;;;;;;;;;;;;;;5088683;28;19924;-59
2022/01/24 01:54:04;;;;;;;;;;;;;;;;;;5087617;28;19919;-58
2022/01/24 01:56:30;;;;;;;;;;;;;;;;;;5087216;28;20562;-58
2022/01/24 01:58:56;;;;;;;;;;;;;;;;;;5086675;28;19925;-59
2022/01/24 02:01:23;;;;;;;;;;;;;;;;;;5095441;28;19924;-59
2022/01/24 02:03:50;;;;;;;;;;;;;;;;;;5094113;28;19977;-59
2022/01/24 02:06:16;;;;;;;;;;;;;;;;;;5093876;28;19963;-59
2022/01/24 02:08:42;;;;;;;;;;;;;;;;;;5093953;28;20515;-59
2022/01/24 02:11:10;;;;;;;;;;;;;;;;;;5094388;28;19959;-59
2022/01/24 02:13:36;;;;;;;;;;;;;;;;;;5093471;28;20379;-59
2022/01/24 02:16:10;;;;;;;;;;;;;;;;;;5093989;28;19963;-59
2022/01/24 02:18:42;;;;;;;;;;;;;;;;;;5094169;28;19924;-59
2022/01/24 02:21:13;;;;;;;;;;;;;;;;;;5093336;28;20371;-59
2022/01/24 02:23:42;;;;;;;;;;;;;;;;;;5094325;28;20256;-59
2022/01/24 02:26:10;;;;;;;;;;;;;;;;;;5093436;28;19936;-59
2022/01/24 02:28:47;;;;;;;;;;;;;;;;;;5094229;28;19924;-59
2022/01/24 02:31:37;;;;;;;;;;;;;;;;;;5093372;28;19928;-59
2022/01/24 02:34:03;;;;;;;;;;;;;;;;;;5072864;28;19924;-59
2022/01/24 02:36:29;;;;;;;;;;;;;;;;;;5073929;28;19993;-59
2022/01/24 02:39:06;;;;;;;;;;;;;;;;;;5073001;28;19929;-59
2022/01/24 02:49:44;;;;;;;;;;;;;;;;;;5072895;28;20343;-58
2022/01/24 02:52:10;;;;;;;;;;;;;;;;;;5072921;28;19928;-59
2022/01/24 02:54:36;;;;;;;;;;;;;;;;;;5072589;28;20027;-59
2022/01/24 02:57:02;;;;;;;;;;;;;;;;;;5072966;28;19986;-60
2022/01/24 02:59:28;;;;;;;;;;;;;;;;;;5073587;28;19929;-59
2022/01/24 03:01:54;;;;;;;;;;;;;;;;;;5072278;28;19924;-59
2022/01/24 03:04:20;;;;;;;;;;;;;;;;;;5073371;28;19924;-59
2022/01/24 03:06:46;;;;;;;;;;;;;;;;;;5072349;28;20330;-59
2022/01/24 03:09:12;;;;;;;;;;;;;;;;;;5072017;28;19932;-58
2022/01/24 03:11:58;;;;;;;;;;;;;;;;;;5072966;28;20015;-60
2022/01/24 03:14:24;;;;;;;;;;;;;;;;;;5072409;28;20374;-59
2022/01/24 03:16:50;;;;;;;;;;;;;;;;;;5071715;28;19980;-59
2022/01/24 03:19:16;;;;;;;;;;;;;;;;;;5072537;28;19931;-59
2022/01/24 03:21:43;;;;;;;;;;;;;;;;;;5072267;28;19928;-59
2022/01/24 03:24:09;;;;;;;;;;;;;;;;;;5072127;28;19925;-59
2022/01/24 03:26:35;;;;;;;;;;;;;;;;;;5072673;28;20413;-59
2022/01/24 03:29:01;;;;;;;;;;;;;;;;;;5072555;28;19932;-59
2022/01/24 03:31:27;;;;;;;;;;;;;;;;;;5071930;28;19924;-59
2022/01/24 03:33:53;;;;;;;;;;;;;;;;;;5091984;28;19924;-58
2022/01/24 03:36:19;;;;;;;;;;;;;;;;;;5092219;28;19971;-59
2022/01/24 03:38:45;;;;;;;;;;;;;;;;;;5092369;28;20072;-59
2022/01/24 03:41:11;;;;;;;;;;;;;;;;;;5092734;28;19927;-59
2022/01/24 03:43:37;;;;;;;;;;;;;;;;;;5091801;28;19924;-59
2022/01/24 03:46:13;;;;;;;;;;;;;;;;;;5092481;28;19924;-59
2022/01/24 03:48:42;;;;;;;;;;;;;;;;;;5092605;28;19977;-59
2022/01/24 03:51:08;;;;;;;;;;;;;;;;;;5091947;28;19924;-59
2022/01/24 03:53:34;;;;;;;;;;;;;;;;;;5092694;28;19924;-59
2022/01/24 03:56:00;;;;;;;;;;;;;;;;;;5092469;28;19924;-59
2022/01/24 03:58:27;;;;;;;;;;;;;;;;;;5091760;28;19977;-59
2022/01/24 04:00:53;;;;;;;;;;;;;;;;;;5080559;28;19928;-59
2022/01/24 04:03:19;;;;;;;;;;;;;;;;;;5072102;28;19977;-59
2022/01/24 04:05:45;;;;;;;;;;;;;;;;;;5071049;28;20345;-59
2022/01/24 04:08:11;;;;;;;;;;;;;;;;;;5072143;28;19928;-59
2022/01/24 04:10:42;;;;;;;;;;;;;;;;;;5071915;28;20368;-59
2022/01/24 04:13:21;;;;;;;;;;;;;;;;;;5071095;28;19924;-59
2022/01/24 04:15:59;;;;;;;;;;;;;;;;;;5071875;28;19928;-59
2022/01/24 04:18:34;;;;;;;;;;;;;;;;;;5071022;28;19931;-59
2022/01/24 04:21:22;;;;;;;;;;;;;;;;;;5071859;28;19986;-59
2022/01/24 04:23:52;;;;;;;;;;;;;;;;;;5070937;28;19935;-59
2022/01/24 04:26:18;;;;;;;;;;;;;;;;;;5071416;28;19924;-59
2022/01/24 04:28:44;;;;;;;;;;;;;;;;;;5071239;28;19924;-59
2022/01/24 04:31:10;;;;;;;;;;;;;;;;;;5071737;28;20338;-59
2022/01/24 04:33:36;;;;;;;;;;;;;;;;;;5089116;28;19950;-59
2022/01/24 04:36:02;;;;;;;;;;;;;;;;;;5091669;28;20473;-59
2022/01/24 04:38:28;;;;;;;;;;;;;;;;;;5091740;28;19928;-60
2022/01/24 04:40:58;;;;;;;;;;;;;;;;;;5090878;28;19994;-59
2022/01/24 04:43:33;;;;;;;;;;;;;;;;;;5091284;28;19925;-59
2022/01/24 04:46:08;;;;;;;;;;;;;;;;;;5091680;28;20018;-59
2022/01/24 04:51:32;;;;;;;;;;;;;;;;;;5091800;28;19927;-59
2022/01/24 04:56:57;;;;;;;;;;;;;;;;;;5028865;28;19966;-59
2022/01/24 04:59:23;;;;;;;;;;;;;;;;;;5029034;28;19929;-58
2022/01/24 05:01:49;;;;;;;;;;;;;;;;;;5035248;28;19924;-59
2022/01/24 05:04:15;;;;;;;;;;;;;;;;;;5071571;28;19997;-59
2022/01/24 05:06:41;;;;;;;;;;;;;;;;;;5071444;28;19924;-58
2022/01/24 05:09:07;;;;;;;;;;;;;;;;;;5070666;28;19925;-59
2022/01/24 05:11:40;;;;;;;;;;;;;;;;;;5071568;28;19972;-59
2022/01/24 05:25:02;;;;;;;;;;;;;;;;;;5070704;28;19923;-59
2022/01/24 05:27:30;;;;;;;;;;;;;;;;;;5071364;28;19924;-59
2022/01/24 05:29:56;;;;;;;;;;;;;;;;;;5070105;28;19930;-58
2022/01/24 05:32:22;;;;;;;;;;;;;;;;;;5078980;28;19924;-59
2022/01/24 05:34:48;;;;;;;;;;;;;;;;;;5091178;28;19928;-58
2022/01/24 05:37:14;;;;;;;;;;;;;;;;;;5093503;28;20052;-58
2022/01/24 05:39:40;;;;;;;;;;;;;;;;;;5094840;28;19950;-58
2022/01/24 05:42:06;;;;;;;;;;;;;;;;;;5094756;28;19927;-58
2022/01/24 05:44:32;;;;;;;;;;;;;;;;;;5094301;28;19969;-59
2022/01/24 05:46:58;;;;;;;;;;;;;;;;;;5094684;28;19994;-59
2022/01/24 05:49:24;;;;;;;;;;;;;;;;;;5094754;28;19928;-59
2022/01/24 05:51:50;;;;;;;;;;;;;;;;;;5093685;28;19924;-59
2022/01/24 05:54:17;;;;;;;;;;;;;;;;;;5094717;28;19977;-60
2022/01/24 05:56:43;;;;;;;;;;;;;;;;;;5094756;28;20337;-60
2022/01/24 05:59:09;;;;;;;;;;;;;;;;;;5094330;28;19924;-60
2022/01/24 06:01:35;;;;;;;;;;;;;;;;;;5077336;28;20379;-60
2022/01/24 06:04:01;;;;;;;;;;;;;;;;;;5073484;28;19985;-60
2022/01/24 06:06:27;;;;;;;;;;;;;;;;;;5074188;28;20314;-60
2022/01/24 06:08:53;;;;;;;;;;;;;;;;;;5073945;28;19928;-59
2022/01/24 06:11:20;;;;;;;;;;;;;;;;;;5073545;28;20444;-59
2022/01/24 06:13:50;;;;;;;;;;;;;;;;;;5074118;28;19924;-60
2022/01/24 06:16:16;;;;;;;;;;;;;;;;;;5074128;28;19971;-60
2022/01/24 06:18:42;;;;;;;;;;;;;;;;;;5073345;28;19966;-59
2022/01/24 06:21:08;;;;;;;;;;;;;;;;;;5073943;28;19924;-59
2022/01/24 06:23:34;;;;;;;;;;;;;;;;;;5073798;28;20002;-59
2022/01/24 06:26:00;;;;;;;;;;;;;;;;;;5072712;28;19929;-59
2022/01/24 06:28:26;;;;;;;;;;;;;;;;;;5073505;28;20329;-59
2022/01/24 06:30:53;;;;;;;;;;;;;;;;;;5073659;28;19929;-59
2022/01/24 06:33:19;;;;;;;;;;;;;;;;;;5088975;28;20027;-59
2022/01/24 06:35:45;;;;;;;;;;;;;;;;;;5093596;28;20355;-59
2022/01/24 06:38:11;;;;;;;;;;;;;;;;;;5094209;28;19978;-60
2022/01/24 06:40:37;;;;;;;;;;;;;;;;;;5092716;28;19924;-59
2022/01/24 06:43:03;;;;;;;;;;;;;;;;;;5093513;28;19924;-59
2022/01/24 06:45:30;;;;;;;;;;;;;;;;;;5093589;28;20378;-59
2022/01/24 06:47:56;;;;;;;;;;;;;;;;;;5092877;28;19923;-59
2022/01/24 06:50:22;;;;;;;;;;;;;;;;;;5093646;28;19970;-59
2022/01/24 06:52:48;;;;;;;;;;;;;;;;;;5093493;28;19932;-59
2022/01/24 06:55:14;;;;;;;;;;;;;;;;;;5092825;28;19924;-59
2022/01/24 06:57:40;;;;;;;;;;;;;;;;;;5093638;28;19978;-59
2022/01/24 07:00:06;;;;;;;;;;;;;;;;;;5087250;28;19925;-59
2022/01/24 07:02:32;;;;;;;;;;;;;;;;;;5073394;28;20428;-59
2022/01/24 07:04:58;;;;;;;;;;;;;;;;;;5072793;28;19924;-59
2022/01/24 07:07:24;;;;;;;;;;;;;;;;;;5072324;28;19924;-59
2022/01/24 07:09:50;;;;;;;;;;;;;;;;;;5072577;28;19978;-59
2022/01/24 07:12:16;;;;;;;;;;;;;;;;;;5072627;28;20360;-59
2022/01/24 07:14:44;;;;;;;;;;;;;;;;;;5072030;28;19924;-59
2022/01/24 07:17:28;;;;;;;;;;;;;;;;;;5072837;28;19925;-59
2022/01/24 07:19:54;;;;;;;;;;;;;;;;;;5072831;28;20013;-59
2022/01/24 07:22:20;;;;;;;;;;;;;;;;;;5072287;28;19925;-59
2022/01/24 07:24:46;;;;;;;;;;;;;;;;;;5071977;28;19928;-59
2022/01/24 07:27:12;;;;;;;;;;;;;;;;;;5071780;28;19993;-59
2022/01/24 07:29:38;;;;;;;;;;;;;;;;;;5071410;28;19929;-59
2022/01/24 07:32:04;;;;;;;;;;;;;;;;;;5076824;28;19924;-59
2022/01/24 07:34:31;;;;;;;;;;;;;;;;;;5089168;28;19928;-59
2022/01/24 07:36:57;;;;;;;;;;;;;;;;;;5090945;28;19924;-59
2022/01/24 07:39:23;;;;;;;;;;;;;;;;;;5092113;28;20026;-59
2022/01/24 07:41:50;;;;;;;;;;;;;;;;;;5091662;28;19924;-59
2022/01/24 07:44:16;;;;;;;;;;;;;;;;;;5091272;28;19947;-59
2022/01/24 07:46:43;;;;;;;;;;;;;;;;;;5091961;28;19981;-59
2022/01/24 07:49:10;;;;;;;;;;;;;;;;;;5092818;28;19928;-59
2022/01/24 07:51:36;;;;;;;;;;;;;;;;;;5091759;28;19932;-59
2022/01/24 07:54:02;;;;;;;;;;;;;;;;;;5092623;28;19928;-59
2022/01/24 07:56:28;;;;;;;;;;;;;;;;;;5091816;28;19969;-60
2022/01/24 07:58:54;;;;;;;;;;;;;;;;;;5091797;28;19924;-60
2022/01/24 08:01:21;;;;;;;;;;;;;;;;;;5076815;28;20371;-59
2022/01/24 08:03:47;;;;;;;;;;;;;;;;;;5071565;28;19970;-60
2022/01/24 08:06:13;;;;;;;;;;;;;;;;;;5072551;28;19931;-59
2022/01/24 08:08:39;;;;;;;;;;;;;;;;;;5072197;28;19924;-59
2022/01/24 08:11:05;;;;;;;;;;;;;;;;;;5070847;28;19924;-60
2022/01/24 08:13:31;;;;;;;;;;;;;;;;;;5072080;28;19985;-60
2022/01/24 08:15:57;;;;;;;;;;;;;;;;;;5071092;28;19924;-58
2022/01/24 08:18:23;;;;;;;;;;;;;;;;;;5071530;28;19977;-59
2022/01/24 08:20:49;;;;;;;;;;;;;;;;;;5071772;28;19978;-59
2022/01/24 08:23:17;;;;;;;;;;;;;;;;;;5081713;28;19927;-58
2022/01/24 08:25:43;;;;;;;;;;;;;;;;;;5090283;28;19969;-58
2022/01/24 08:28:09;;;;;;;;;;;;;;;;;;5091892;28;20371;-59
2022/01/24 08:30:36;;;;;;;;;;;;;;;;;;5091791;28;19924;-59
2022/01/24 08:33:02;;;;;;;;;;;;;;;;;;5077490;28;19986;-59
2022/01/24 08:35:28;;;;;;;;;;;;;;;;;;5071806;28;19928;-59
2022/01/24 08:37:54;;;;;;;;;;;;;;;;;;5070778;28;20253;-59
2022/01/24 08:40:23;;;;;;;;;;;;;;;;;;5070924;28;19970;-59
2022/01/24 08:42:57;;;;;;;;;;;;;;;;;;5070872;28;19928;-59
2022/01/24 08:48:06;;;;;;;;;;;;;;;;;;5071839;28;20085;-59
2022/01/24 08:50:32;;;;;;;;;;;;;;;;;;5071082;28;19928;-59
2022/01/24 08:53:00;;;;;;;;;;;;;;;;;;5069863;28;19977;-58
2022/01/24 08:55:27;;;;;;;;;;;;;;;;;;5071465;28;19983;-59
2022/01/24 08:57:53;;;;;;;;;;;;;;;;;;5071108;28;19931;-59
2022/01/24 09:00:19;;;;;;;;;;;;;;;;;;5077554;28;20378;-60
2022/01/24 09:02:45;;;;;;;;;;;;;;;;;;5091243;28;19924;-59
2022/01/24 09:05:11;;;;;;;;;;;;;;;;;;5091654;28;20452;-59
2022/01/24 09:07:37;;;;;;;;;;;;;;;;;;5089937;28;19932;-60
2022/01/24 09:10:03;;;;;;;;;;;;;;;;;;5091233;28;20589;-60
2022/01/24 09:12:29;;;;;;;;;;;;;;;;;;5095050;28;19924;-60
2022/01/24 09:14:55;;;;;;;;;;;;;;;;;;5094498;28;20259;-59
2022/01/24 09:17:22;;;;;;;;;;;;;;;;;;5095632;28;19924;-59
2022/01/24 09:19:48;;;;;;;;;;;;;;;;;;5095136;28;20420;-59
2022/01/24 09:22:14;;;;;;;;;;;;;;;;;;5093978;28;19928;-59
2022/01/24 09:24:40;;;;;;;;;;;;;;;;;;5095235;28;19924;-60
2022/01/24 09:27:06;;;;;;;;;;;;;;;;;;5094920;28;19928;-59
2022/01/24 09:29:32;;;;;;;;;;;;;;;;;;5094755;28;19966;-59
2022/01/24 09:31:58;;;;;;;;;;;;;;;;;;5090082;28;19928;-59
2022/01/24 09:34:24;;;;;;;;;;;;;;;;;;5074950;28;19924;-59
2022/01/24 09:36:50;;;;;;;;;;;;;;;;;;5073236;28;19978;-58
2022/01/24 09:39:16;;;;;;;;;;;;;;;;;;5074746;28;19928;-59
2022/01/24 09:41:42;;;;;;;;;;;;;;;;;;5074467;28;19928;-58
2022/01/24 09:44:08;;;;;;;;;;;;;;;;;;5074058;28;19924;-58
2022/01/24 09:46:34;;;;;;;;;;;;;;;;;;5074770;28;19924;-59
2022/01/24 09:49:01;;;;;;;;;;;;;;;;;;5073160;28;20001;-59
2022/01/24 09:51:27;;;;;;;;;;;;;;;;;;5073860;28;19925;-59
2022/01/24 09:53:53;;;;;;;;;;;;;;;;;;5074232;28;19925;-58
2022/01/24 09:56:19;;;;;;;;;;;;;;;;;;5073586;28;19971;-58
2022/01/24 09:58:45;;;;;;;;;;;;;;;;;;5078800;28;19928;-58
2022/01/24 10:01:13;;;;;;;;;;;;;;;;;;5080310;28;19924;-58
2022/01/24 10:03:39;;;;;;;;;;;;;;;;;;5072987;28;20344;-58
2022/01/24 10:06:05;;;;;;;;;;;;;;;;;;5073540;28;20198;-58
2022/01/24 10:08:31;;;;;;;;;;;;;;;;;;5073528;28;20084;-59
2022/01/24 10:10:57;;;;;;;;;;;;;;;;;;5072441;28;19954;-58
2022/01/24 10:16:25;;;;;;;;;;;;;;;;;;5052618;28;19931;-60
2022/01/24 10:18:51;;;;;;;;;;;;;;;;;;5072885;28;19924;-59
2022/01/24 10:21:17;;;;;;;;;;;;;;;;;;5073584;28;20027;-59
2022/01/24 10:23:43;;;;;;;;;;;;;;;;;;5073350;28;19978;-58
2022/01/24 10:26:10;;;;;;;;;;;;;;;;;;5073305;28;20341;-60
2022/01/24 10:28:38;;;;;;;;;;;;;;;;;;5073915;28;19932;-60
2022/01/24 10:31:04;;;;;;;;;;;;;;;;;;5072961;28;19924;-59
2022/01/24 10:33:30;;;;;;;;;;;;;;;;;;5090917;28;19978;-59
2022/01/24 10:35:56;;;;;;;;;;;;;;;;;;5093435;28;19924;-59
2022/01/24 10:38:29;;;;;;;;;;;;;;;;;;5093354;28;20045;-59
2022/01/24 10:41:07;;;;;;;;;;;;;;;;;;5093806;28;19928;-59
2022/01/24 10:43:33;;;;;;;;;;;;;;;;;;5093925;28;20347;-59
2022/01/24 10:45:59;;;;;;;;;;;;;;;;;;5092712;28;19977;-59
2022/01/24 10:48:25;;;;;;;;;;;;;;;;;;5093226;28;20370;-59
2022/01/24 10:50:51;;;;;;;;;;;;;;;;;;5092875;28;19928;-58
2022/01/24 10:53:18;;;;;;;;;;;;;;;;;;5092938;28;19928;-58
2022/01/24 10:55:45;;;;;;;;;;;;;;;;;;5093480;28;19924;-59
2022/01/24 10:58:13;;;;;;;;;;;;;;;;;;5093491;28;19924;-59
2022/01/24 11:00:40;;;;;;;;;;;;;;;;;;5083342;28;19929;-59
2022/01/24 11:03:08;;;;;;;;;;;;;;;;;;5073110;28;20334;-59
2022/01/24 11:05:34;;;;;;;;;;;;;;;;;;5072538;28;19931;-59
2022/01/24 11:08:00;;;;;;;;;;;;;;;;;;5071250;28;19966;-59
2022/01/24 11:10:26;;;;;;;;;;;;;;;;;;5072023;28;19925;-59
2022/01/24 11:12:53;;;;;;;;;;;;;;;;;;5072485;28;19931;-59
2022/01/24 11:15:19;;;;;;;;;;;;;;;;;;5072510;28;19935;-59
2022/01/24 11:17:46;;;;;;;;;;;;;;;;;;5072684;28;19925;-59
2022/01/24 11:20:16;;;;;;;;;;;;;;;;;;5073065;28;19931;-59
2022/01/24 11:22:44;;;;;;;;;;;;;;;;;;5072161;28;19924;-59
2022/01/24 11:25:10;;;;;;;;;;;;;;;;;;5073048;28;19924;-59
2022/01/24 11:27:36;;;;;;;;;;;;;;;;;;5071618;28;19981;-59
2022/01/24 11:30:03;;;;;;;;;;;;;;;;;;5072149;28;19932;-59
2022/01/24 11:32:29;;;;;;;;;;;;;;;;;;5081451;28;20275;-59
2022/01/24 11:34:55;;;;;;;;;;;;;;;;;;5091117;28;19970;-59
2022/01/24 11:37:21;;;;;;;;;;;;;;;;;;5093180;28;19928;-59
2022/01/24 11:39:47;;;;;;;;;;;;;;;;;;5092465;28;19924;-60
2022/01/24 11:42:13;;;;;;;;;;;;;;;;;;5092322;28;20337;-59
2022/01/24 11:44:39;;;;;;;;;;;;;;;;;;5092984;28;19937;-59
2022/01/24 11:47:07;;;;;;;;;;;;;;;;;;5092844;28;20368;-60
2022/01/24 11:49:35;;;;;;;;;;;;;;;;;;5091920;28;19931;-58
2022/01/24 11:52:01;;;;;;;;;;;;;;;;;;5092415;28;19928;-59
2022/01/24 11:54:30;;;;;;;;;;;;;;;;;;5092612;28;19931;-58
2022/01/24 11:56:56;;;;;;;;;;;;;;;;;;5091871;28;19924;-58
2022/01/24 11:59:23;;;;;;;;;;;;;;;;;;5092599;28;19928;-58
2022/01/24 12:01:54;;;;;;;;;;;;;;;;;;5072896;28;19928;-58
2022/01/24 12:04:20;;;;;;;;;;;;;;;;;;5071269;28;19928;-59
2022/01/24 12:06:46;;;;;;;;;;;;;;;;;;5072003;28;19924;-60
2022/01/24 12:09:12;;;;;;;;;;;;;;;;;;5072103;28;19932;-60
2022/01/24 12:11:38;;;;;;;;;;;;;;;;;;5071103;28;19932;-60
2022/01/24 12:14:10;;;;;;;;;;;;;;;;;;5071404;28;20084;-60
2022/01/24 12:16:36;;;;;;;;;;;;;;;;;;5071560;28;19924;-60
2022/01/24 12:19:02;;;;;;;;;;;;;;;;;;5071714;28;19929;-60
2022/01/24 12:21:28;;;;;;;;;;;;;;;;;;5071881;28;19928;-60
2022/01/24 12:23:54;;;;;;;;;;;;;;;;;;5070957;28;19929;-60
2022/01/24 12:26:20;;;;;;;;;;;;;;;;;;5072131;28;20041;-60
2022/01/24 12:28:47;;;;;;;;;;;;;;;;;;5071597;28;19928;-59
2022/01/24 12:31:13;;;;;;;;;;;;;;;;;;5071140;28;19931;-61
2022/01/24 12:33:39;;;;;;;;;;;;;;;;;;5089911;28;19928;-60
2022/01/24 12:36:05;;;;;;;;;;;;;;;;;;5091757;28;19924;-60
2022/01/24 12:38:31;;;;;;;;;;;;;;;;;;5091552;28;19928;-59
2022/01/24 12:40:57;;;;;;;;;;;;;;;;;;5091748;28;19924;-59
2022/01/24 12:43:50;;;;;;;;;;;;;;;;;;5091536;28;19924;-59
2022/01/24 12:46:19;;;;;;;;;;;;;;;;;;5091021;28;19924;-59
2022/01/24 12:48:45;;;;;;;;;;;;;;;;;;5091252;28;19970;-59
2022/01/24 12:51:11;;;;;;;;;;;;;;;;;;5091920;28;20363;-59
2022/01/24 12:53:37;;;;;;;;;;;;;;;;;;5091223;28;19924;-59
2022/01/24 12:56:03;;;;;;;;;;;;;;;;;;5091340;28;20444;-59
2022/01/24 12:58:29;;;;;;;;;;;;;;;;;;5091877;28;19931;-59
2022/01/24 13:00:55;;;;;;;;;;;;;;;;;;5078631;28;20379;-59
2022/01/24 13:03:22;;;;;;;;;;;;;;;;;;5071553;28;19924;-59
2022/01/24 13:05:48;;;;;;;;;;;;;;;;;;5070511;28;20280;-59
2022/01/24 13:08:14;;;;;;;;;;;;;;;;;;5071715;28;19928;-59
2022/01/24 13:10:44;;;;;;;;;;;;;;;;;;5071641;28;19924;-59
2022/01/24 13:13:13;;;;;;;;;;;;;;;;;;5070793;28;19939;-59
2022/01/24 13:21:10;;;;;;;;;;;;;;;;;;5070678;28;20279;-59
2022/01/24 13:23:39;;;;;;;;;;;;;;;;;;5071505;28;20027;-59
2022/01/24 13:26:05;;;;;;;;;;;;;;;;;;5070867;28;19924;-59
2022/01/24 13:28:31;;;;;;;;;;;;;;;;;;5070857;28;19982;-60
2022/01/24 13:31:01;;;;;;;;;;;;;;;;;;5070936;28;19925;-59
2022/01/24 13:33:27;;;;;;;;;;;;;;;;;;5087949;28;19924;-59
2022/01/24 13:35:53;;;;;;;;;;;;;;;;;;5090345;28;19931;-59
2022/01/24 13:38:19;;;;;;;;;;;;;;;;;;5091490;28;20371;-59
2022/01/24 13:40:52;;;;;;;;;;;;;;;;;;5090908;28;19927;-59
2022/01/24 13:43:18;;;;;;;;;;;;;;;;;;5090870;28;19924;-59
2022/01/24 13:45:45;;;;;;;;;;;;;;;;;;5090866;28;20325;-60
2022/01/24 13:48:12;;;;;;;;;;;;;;;;;;5090725;28;19924;-62
2022/01/24 13:50:38;;;;;;;;;;;;;;;;;;5091178;28;19928;-61
2022/01/24 13:53:04;;;;;;;;;;;;;;;;;;5090923;28;19924;-62
2022/01/24 13:55:30;;;;;;;;;;;;;;;;;;5090466;28;19924;-61
2022/01/24 13:57:56;;;;;;;;;;;;;;;;;;5093397;28;19950;-60
2022/01/24 14:00:22;;;;;;;;;;;;;;;;;;5087718;28;19947;-60
2022/01/24 14:02:50;;;;;;;;;;;;;;;;;;5073618;28;19924;-59
2022/01/24 14:05:16;;;;;;;;;;;;;;;;;;5085094;28;19924;-59
2022/01/24 14:07:42;;;;;;;;;;;;;;;;;;5094593;28;19984;-60
2022/01/24 14:10:09;;;;;;;;;;;;;;;;;;5093742;28;19931;-60
2022/01/24 14:12:40;;;;;;;;;;;;;;;;;;5094766;28;19970;-60
2022/01/24 14:15:09;;;;;;;;;;;;;;;;;;5094509;28;19928;-59
2022/01/24 14:17:47;;;;;;;;;;;;;;;;;;5093842;28;19928;-59
2022/01/24 14:20:13;;;;;;;;;;;;;;;;;;5094475;28;19924;-59
2022/01/24 14:22:39;;;;;;;;;;;;;;;;;;5094800;28;19924;-59
2022/01/24 14:25:05;;;;;;;;;;;;;;;;;;5093358;28;19987;-59
2022/01/24 14:27:32;;;;;;;;;;;;;;;;;;5094534;28;19927;-59
2022/01/24 14:29:58;;;;;;;;;;;;;;;;;;5090886;28;19994;-59
2022/01/24 14:32:25;;;;;;;;;;;;;;;;;;5085410;28;19985;-59
2022/01/24 14:34:51;;;;;;;;;;;;;;;;;;5073733;28;20026;-59
2022/01/24 14:37:17;;;;;;;;;;;;;;;;;;5073336;28;20338;-59
2022/01/24 14:39:44;;;;;;;;;;;;;;;;;;5073849;28;19978;-59
2022/01/24 14:42:13;;;;;;;;;;;;;;;;;;5081445;28;20383;-59
2022/01/24 14:44:53;;;;;;;;;;;;;;;;;;5093495;28;19924;-59
2022/01/24 14:47:19;;;;;;;;;;;;;;;;;;5093932;28;19930;-59
2022/01/24 14:49:45;;;;;;;;;;;;;;;;;;5093480;28;19924;-59
2022/01/24 14:52:14;;;;;;;;;;;;;;;;;;5093165;28;19924;-58
2022/01/24 14:54:40;;;;;;;;;;;;;;;;;;5094091;28;19925;-59
2022/01/24 14:57:08;;;;;;;;;;;;;;;;;;5093658;28;20026;-59
2022/01/24 14:59:34;;;;;;;;;;;;;;;;;;5092456;28;20083;-59
2022/01/24 15:02:00;;;;;;;;;;;;;;;;;;5075743;28;19927;-59
2022/01/24 15:04:26;;;;;;;;;;;;;;;;;;5091507;28;19924;-58
2022/01/24 15:06:52;;;;;;;;;;;;;;;;;;5092643;28;20366;-59
2022/01/24 15:09:18;;;;;;;;;;;;;;;;;;5093756;28;19924;-60
2022/01/24 15:11:44;;;;;;;;;;;;;;;;;;5093146;28;19969;-59
2022/01/24 15:14:15;;;;;;;;;;;;;;;;;;5092745;28;19931;-59
2022/01/24 15:16:47;;;;;;;;;;;;;;;;;;5093220;28;19981;-59
2022/01/24 15:27:25;;;;;;;;;;;;;;;;;;5072209;28;19958;-59
2022/01/24 15:29:51;;;;;;;;;;;;;;;;;;5072857;28;19932;-59
2022/01/24 15:32:17;;;;;;;;;;;;;;;;;;5079723;28;19928;-60
2022/01/24 15:34:43;;;;;;;;;;;;;;;;;;5092310;28;19994;-59
2022/01/24 15:37:09;;;;;;;;;;;;;;;;;;5093040;28;19924;-58
2022/01/24 15:39:36;;;;;;;;;;;;;;;;;;5093010;28;19924;-60
2022/01/24 15:42:08;;;;;;;;;;;;;;;;;;5092052;28;19932;-59
2022/01/24 15:45:03;;;;;;;;;;;;;;;;;;5093187;28;19924;-59
2022/01/24 15:47:35;;;;;;;;;;;;;;;;;;5092810;28;19924;-59
2022/01/24 15:50:01;;;;;;;;;;;;;;;;;;5092371;28;19958;-59
2022/01/24 15:52:27;;;;;;;;;;;;;;;;;;5092752;28;19985;-59
2022/01/24 15:54:55;;;;;;;;;;;;;;;;;;5091661;28;19932;-60
2022/01/24 16:00:05;;;;;;;;;;;;;;;;;;5087526;28;19989;-60
2022/01/24 16:02:31;;;;;;;;;;;;;;;;;;5071549;28;19979;-58
2022/01/24 16:04:58;;;;;;;;;;;;;;;;;;5072066;28;19998;-58
2022/01/24 16:07:24;;;;;;;;;;;;;;;;;;5072092;28;19959;-58
2022/01/24 16:09:50;;;;;;;;;;;;;;;;;;5071069;28;20371;-58
2022/01/24 16:12:16;;;;;;;;;;;;;;;;;;5071786;28;19942;-58
2022/01/24 16:14:42;;;;;;;;;;;;;;;;;;5073860;28;20579;-58
2022/01/24 16:17:08;;;;;;;;;;;;;;;;;;5091603;28;19931;-58
2022/01/24 16:19:38;;;;;;;;;;;;;;;;;;5092060;28;19997;-57
2022/01/24 16:22:16;;;;;;;;;;;;;;;;;;5091919;28;19930;-57
2022/01/24 16:27:26;;;;;;;;;;;;;;;;;;5091874;28;19918;-58
2022/01/24 16:29:52;;;;;;;;;;;;;;;;;;5091205;28;19932;-58
2022/01/24 16:32:18;;;;;;;;;;;;;;;;;;5084867;28;19929;-58
2022/01/24 16:34:44;;;;;;;;;;;;;;;;;;5070571;28;19925;-58
2022/01/24 16:37:11;;;;;;;;;;;;;;;;;;5071064;28;19950;-58
2022/01/24 16:39:39;;;;;;;;;;;;;;;;;;5071953;28;20041;-59
2022/01/24 16:42:11;;;;;;;;;;;;;;;;;;5071094;28;19929;-58
2022/01/24 16:44:56;;;;;;;;;;;;;;;;;;5071194;28;19924;-58
2022/01/24 16:47:21;;;;;;;;;;;;;;;;;;5071744;28;19928;-58
2022/01/24 16:49:47;;;;;;;;;;;;;;;;;;5079137;28;19932;-59
2022/01/24 16:52:13;;;;;;;;;;;;;;;;;;5079634;28;19928;-59
2022/01/24 16:54:42;;;;;;;;;;;;;;;;;;5079623;28;19978;-58
2022/01/24 16:57:09;;;;;;;;;;;;;;;;;;5076753;28;19925;-59
2022/01/24 16:59:35;;;;;;;;;;;;;;;;;;5071527;28;19970;-58
2022/01/24 17:02:03;;;;;;;;;;;;;;;;;;5091396;28;20797;-58
2022/01/24 17:04:29;;;;;;;;;;;;;;;;;;5091638;28;19924;-58
2022/01/24 17:06:57;;;;;;;;;;;;;;;;;;5090397;28;19924;-58
2022/01/24 17:09:23;;;;;;;;;;;;;;;;;;5091229;28;19983;-58
2022/01/24 17:11:54;;;;;;;;;;;;;;;;;;5091338;28;19978;-58
2022/01/24 17:14:21;;;;;;;;;;;;;;;;;;5090591;28;19924;-58
2022/01/24 17:16:47;;;;;;;;;;;;;;;;;;5091206;28;19931;-58
2022/01/24 17:19:13;;;;;;;;;;;;;;;;;;5090595;28;19978;-58
2022/01/24 17:21:39;;;;;;;;;;;;;;;;;;5091608;28;19985;-59
2022/01/24 17:24:05;;;;;;;;;;;;;;;;;;5091167;28;19924;-58
2022/01/24 17:26:31;;;;;;;;;;;;;;;;;;5090614;28;20353;-58
2022/01/24 17:28:58;;;;;;;;;;;;;;;;;;5091038;28;19928;-58
2022/01/24 17:31:24;;;;;;;;;;;;;;;;;;5091305;28;20365;-59
2022/01/24 17:33:50;;;;;;;;;;;;;;;;;;5073995;28;19924;-58
2022/01/24 17:36:16;;;;;;;;;;;;;;;;;;5074872;28;19932;-58
2022/01/24 17:38:42;;;;;;;;;;;;;;;;;;5074822;28;19928;-58
2022/01/24 17:41:08;;;;;;;;;;;;;;;;;;5074246;28;19954;-58
2022/01/24 17:43:34;;;;;;;;;;;;;;;;;;5074961;28;19950;-58
2022/01/24 17:46:00;;;;;;;;;;;;;;;;;;5074568;28;19994;-58
2022/01/24 17:48:26;;;;;;;;;;;;;;;;;;5073973;28;19924;-59
2022/01/24 17:50:52;;;;;;;;;;;;;;;;;;5074241;28;19982;-59
2022/01/24 17:53:19;;;;;;;;;;;;;;;;;;5074465;28;19929;-59
2022/01/24 17:55:45;;;;;;;;;;;;;;;;;;5073833;28;19925;-58
2022/01/24 17:58:11;;;;;;;;;;;;;;;;;;5074257;28;20445;-59
2022/01/24 18:00:37;;;;;;;;;;;;;;;;;;5083811;28;19927;-58
2022/01/24 18:03:03;;;;;;;;;;;;;;;;;;5093433;28;19923;-59
2022/01/24 18:05:30;;;;;;;;;;;;;;;;;;5090732;28;19924;-59
2022/01/24 18:07:56;;;;;;;;;;;;;;;;;;5094042;28;19925;-59
2022/01/24 18:10:22;;;;;;;;;;;;;;;;;;5093955;28;19928;-59
2022/01/24 18:12:49;;;;;;;;;;;;;;;;;;5094213;28;19930;-59
2022/01/24 18:15:16;;;;;;;;;;;;;;;;;;5093983;28;19931;-59
2022/01/24 18:17:42;;;;;;;;;;;;;;;;;;5093965;28;20379;-59
2022/01/24 18:20:08;;;;;;;;;;;;;;;;;;5093462;28;20427;-59